Time;durP1;ratioP1;P1;durP2;ratioP2;P2;SDS_P1;SDS_P2;PMS_P1;PMS_P2;Temp;Humidity;BMP_temperature;BMP_pressure;BME280_temperature;BME280_humidity;BME280_pressure;Samples;Min_cycle;Max_cycle;Signal;HPM_P1;HPM_P2
2022/06/17 00:47:34;;;;;;;8.52;6.65;;;;;;;16.24;68.07;101576.47;6067786;23;20058;-82
2022/06/17 00:50:18;;;;;;;10.45;6.03;;;;;;;16.16;68.03;101566.75;6072239;23;20090;-82
2022/06/17 00:53:20;;;;;;;7.45;6.30;;;;;;;16.22;68.17;101589.03;6070965;23;20030;-82
2022/06/17 00:56:26;;;;;;;11.30;6.75;;;;;;;16.11;68.46;101573.53;6069423;23;20050;-83
2022/06/17 00:59:04;;;;;;;8.85;6.65;;;;;;;16.22;69.21;101599.59;5954778;24;20024;-85
2022/06/17 01:01:39;;;;;;;9.60;6.75;;;;;;;16.20;68.84;101588.38;6179653;23;20052;-83
2022/06/17 01:04:09;;;;;;;10.88;6.45;;;;;;;16.08;69.60;101587.91;6251163;23;20024;-83
2022/06/17 01:06:50;;;;;;;8.65;6.97;;;;;;;16.00;69.78;101587.94;6251221;23;20051;-84
2022/06/17 01:12:10;;;;;;;9.95;6.57;;;;;;;15.87;70.87;101592.91;6251702;23;20039;-84
2022/06/17 01:14:42;;;;;;;8.88;6.18;;;;;;;15.81;71.10;101589.13;6251543;23;20028;-84
2022/06/17 01:17:10;;;;;;;9.38;7.20;;;;;;;15.74;71.26;101597.88;6255417;23;20032;-83
2022/06/17 01:19:42;;;;;;;8.02;6.47;;;;;;;15.77;70.79;101603.63;6255477;23;20028;-84
2022/06/17 01:22:18;;;;;;;8.98;6.32;;;;;;;15.97;70.22;101604.13;6254623;23;20043;-84
2022/06/17 01:24:48;;;;;;;8.45;6.47;;;;;;;15.96;70.48;101606.91;6255453;23;20024;-83
2022/06/17 01:27:18;;;;;;;10.48;6.60;;;;;;;15.92;70.60;101598.50;6253649;23;20087;-81
2022/06/17 01:29:45;;;;;;;8.80;6.90;;;;;;;15.97;70.87;101619.13;6250933;23;20066;-83
2022/06/17 01:32:13;;;;;;;9.13;7.03;;;;;;;15.88;71.03;101626.22;6250640;23;20051;-83
2022/06/17 01:34:40;;;;;;;10.35;6.80;;;;;;;15.85;71.09;101613.38;6250421;23;20028;-83
2022/06/17 01:37:09;;;;;;;9.02;7.00;;;;;;;15.77;71.42;101610.72;6248098;22;20070;-83
2022/06/17 01:39:35;;;;;;;8.15;6.78;;;;;;;15.87;71.02;101611.38;6260486;23;20026;-81
2022/06/17 01:42:04;;;;;;;9.25;7.13;;;;;;;15.90;70.64;101613.69;6259380;23;20083;-80
2022/06/17 01:44:35;;;;;;;7.53;6.07;;;;;;;15.87;71.06;101614.84;6260821;23;20048;-81
2022/06/17 01:47:06;;;;;;;8.18;6.72;;;;;;;15.86;71.15;101607.09;6261702;23;20030;-82
2022/06/17 01:49:36;;;;;;;8.98;6.55;;;;;;;15.91;70.62;101610.06;6264288;23;20022;-82
2022/06/17 01:52:06;;;;;;;9.68;6.50;;;;;;;15.81;71.11;101620.78;6262860;23;20035;-82
2022/06/17 01:54:37;;;;;;;14.60;8.35;;;;;;;15.81;71.33;101609.41;6262554;23;20020;-83
2022/06/17 01:57:08;;;;;;;8.50;6.63;;;;;;;15.78;71.37;101609.72;6261843;23;20035;-82
2022/06/17 01:59:41;;;;;;;9.48;6.22;;;;;;;15.74;71.74;101621.63;6257027;23;20028;-82
2022/06/17 02:02:09;;;;;;;8.55;6.40;;;;;;;15.73;71.70;101604.94;6252486;23;20028;-82
2022/06/17 02:04:39;;;;;;;7.35;6.47;;;;;;;15.68;71.69;101601.97;6260226;23;20056;-83
2022/06/17 02:07:14;;;;;;;9.65;6.85;;;;;;;15.64;71.86;101607.75;6259718;23;20031;-83
2022/06/17 02:09:41;;;;;;;8.93;7.13;;;;;;;15.63;72.44;101614.84;6263961;23;20020;-82
2022/06/17 02:12:11;;;;;;;8.93;6.65;;;;;;;15.60;72.79;101613.34;6267099;23;20027;-83
2022/06/17 02:14:38;;;;;;;9.15;6.47;;;;;;;15.45;73.33;101615.00;6266729;23;20038;-83
2022/06/17 02:17:05;;;;;;;6.80;5.78;;;;;;;15.32;73.52;101601.47;6255204;23;20024;-82
2022/06/17 02:19:36;;;;;;;8.57;6.32;;;;;;;15.07;74.16;101605.06;6252154;23;20024;-82
2022/06/17 02:22:08;;;;;;;8.55;6.30;;;;;;;14.86;75.08;101608.94;6254402;23;20152;-83
2022/06/17 02:24:36;;;;;;;10.90;6.70;;;;;;;14.89;75.15;101613.06;6255568;23;20036;-84
2022/06/17 02:27:06;;;;;;;7.93;6.70;;;;;;;14.94;75.17;101611.59;6252223;23;20024;-82
2022/06/17 02:29:36;;;;;;;8.65;6.78;;;;;;;14.93;75.23;101620.50;6253922;23;20035;-83
2022/06/17 02:32:07;;;;;;;8.60;6.80;;;;;;;14.87;75.70;101625.59;6252261;23;20503;-83
2022/06/17 02:34:36;;;;;;;7.85;6.50;;;;;;;14.83;75.89;101625.06;6253102;23;20080;-84
2022/06/17 02:37:10;;;;;;;10.55;6.78;;;;;;;14.89;75.43;101629.72;6251230;23;20051;-82
2022/06/17 02:39:43;;;;;;;8.55;6.90;;;;;;;14.83;75.51;101624.25;6252161;23;20020;-83
2022/06/17 02:42:14;;;;;;;;;;;;;;;14.97;74.92;101633.34;6250337;23;20051;-83
2022/06/17 02:44:43;;;;;;;9.38;6.80;;;;;;;15.01;74.54;101632.06;6250572;23;19977;-83
2022/06/17 02:47:11;;;;;;;9.32;6.97;;;;;;;14.96;74.60;101635.16;6250193;23;20024;-82
2022/06/17 02:49:40;;;;;;;11.13;6.75;;;;;;;14.94;74.67;101643.25;6250019;23;20028;-84
2022/06/17 02:52:14;;;;;;;8.15;6.65;;;;;;;14.92;74.81;101639.09;6248833;23;20027;-83
2022/06/17 02:54:45;;;;;;;10.40;6.97;;;;;;;14.94;74.57;101637.97;6247949;23;20020;-83
2022/06/17 02:57:20;;;;;;;7.50;6.57;;;;;;;14.91;75.03;101648.81;6248476;23;20027;-83
2022/06/17 02:59:52;;;;;;;10.15;6.85;;;;;;;15.00;74.92;101646.22;6249946;23;20020;-82
2022/06/17 03:02:23;;;;;;;13.57;7.57;;;;;;;15.00;74.86;101651.50;6249347;23;20028;-82
2022/06/17 03:04:51;;;;;;;12.63;7.55;;;;;;;14.99;74.97;101652.47;6249277;23;20059;-81
2022/06/17 03:07:20;;;;;;;15.52;7.80;;;;;;;14.92;75.16;101650.47;6248382;23;20091;-81
2022/06/17 03:09:47;;;;;;;11.45;7.45;;;;;;;14.87;75.46;101649.31;6258342;23;20024;-83
2022/06/17 03:12:19;;;;;;;12.80;7.63;;;;;;;14.94;75.23;101651.16;6260778;23;20020;-82
2022/06/17 03:14:50;;;;;;;10.35;7.63;;;;;;;14.88;75.27;101654.41;6256614;23;20024;-82
2022/06/17 03:17:23;;;;;;;10.10;7.97;;;;;;;14.85;75.35;101644.19;6251917;23;20024;-82
2022/06/17 03:19:51;;;;;;;11.02;7.78;;;;;;;14.80;75.40;101630.66;6252971;23;20100;-81
2022/06/17 03:22:18;;;;;;;10.05;7.63;;;;;;;14.79;75.53;101638.72;6250991;23;20036;-82
2022/06/17 03:24:52;;;;;;;10.32;7.70;;;;;;;14.74;75.76;101644.47;6250829;23;20016;-82
2022/06/17 03:27:25;;;;;;;10.95;7.65;;;;;;;14.69;76.08;101644.13;6249948;23;20024;-83
2022/06/17 03:29:55;;;;;;;;;;;;;;;14.73;76.13;101642.81;6249716;23;20031;-82
2022/06/17 03:32:27;;;;;;;10.90;7.30;;;;;;;14.68;76.26;101642.47;6248346;23;19926;-84
2022/06/17 03:34:55;;;;;;;9.57;7.63;;;;;;;14.56;76.94;101644.56;6247942;23;20044;-84
2022/06/17 03:37:28;;;;;;;9.40;7.45;;;;;;;14.63;76.58;101643.94;6253572;23;20016;-83
2022/06/17 03:39:55;;;;;;;;;;;;;;;14.51;76.97;101651.28;6257928;23;20016;-83
2022/06/17 03:42:29;;;;;;;10.35;8.07;;;;;;;14.53;76.97;101651.97;6249498;23;20000;-82
2022/06/17 03:45:02;;;;;;;13.32;7.88;;;;;;;14.53;77.06;101654.59;6246392;23;20313;-81
2022/06/17 03:47:43;;;;;;;8.75;7.85;;;;;;;14.52;77.16;101642.41;6245888;23;20062;-81
2022/06/17 03:50:19;;;;;;;9.35;7.65;;;;;;;14.46;77.66;101650.94;6247946;23;20016;-82
2022/06/17 03:52:50;;;;;;;10.32;8.00;;;;;;;14.55;77.35;101647.38;6248262;23;20031;-81
2022/06/17 03:55:20;;;;;;;11.20;7.95;;;;;;;14.56;77.69;101654.28;6246965;23;20040;-81
2022/06/17 03:57:50;;;;;;;13.68;8.40;;;;;;;14.46;77.69;101649.13;6248167;23;20031;-81
2022/06/17 04:00:24;;;;;;;9.90;7.93;;;;;;;14.49;78.15;101661.97;6248115;23;20020;-82
2022/06/17 04:02:53;;;;;;;12.75;8.48;;;;;;;14.73;77.38;101666.53;6269014;23;20028;-82
2022/06/17 04:05:21;;;;;;;9.25;7.85;;;;;;;15.38;75.81;101674.66;6270823;22;20020;-82
2022/06/17 04:07:48;;;;;;;9.77;7.85;;;;;;;16.30;72.06;101664.78;6265028;23;20029;-82
2022/06/17 04:10:19;;;;;;;8.88;7.30;;;;;;;16.89;69.66;101664.28;6259566;23;20025;-82
2022/06/17 04:12:47;;;;;;;12.02;7.85;;;;;;;17.11;68.82;101665.31;6254469;23;20024;-83
2022/06/17 04:15:25;;;;;;;15.63;8.52;;;;;;;17.41;67.94;101660.19;6259623;23;20080;-83
2022/06/17 04:17:54;;;;;;;13.43;7.57;;;;;;;18.08;65.80;101658.50;6265072;23;20012;-83
2022/06/17 04:20:32;;;;;;;10.52;7.78;;;;;;;17.88;65.84;101667.97;6259103;23;20027;-83
2022/06/17 04:23:03;;;;;;;9.52;7.57;;;;;;;17.72;66.49;101670.75;6260395;23;20090;-83
2022/06/17 04:25:34;;;;;;;11.27;7.80;;;;;;;17.48;67.24;101669.09;6259927;23;20031;-83
2022/06/17 04:28:06;;;;;;;11.98;7.40;;;;;;;18.03;65.43;101671.44;6258823;23;20028;-84
2022/06/17 04:30:37;;;;;;;10.30;7.25;;;;;;;18.26;64.31;101684.66;6259283;23;20024;-83
2022/06/17 04:33:13;;;;;;;11.25;7.50;;;;;;;18.49;63.16;101688.03;6259659;23;20024;-83
2022/06/17 04:35:39;;;;;;;9.88;7.65;;;;;;;18.12;64.39;101680.97;6257872;23;20028;-85
2022/06/17 04:38:06;;;;;;;11.20;7.75;;;;;;;17.80;65.62;101678.63;6255650;23;20035;-84
2022/06/17 04:40:39;;;;;;;11.05;8.05;;;;;;;17.33;67.19;101676.13;6255454;23;20448;-84
2022/06/17 04:43:22;;;;;;;9.50;7.45;;;;;;;17.61;66.83;101679.06;6254718;23;20092;-84
2022/06/17 04:46:01;;;;;;;11.13;8.20;;;;;;;17.78;66.56;101683.28;6252701;23;20038;-83
2022/06/17 04:48:29;;;;;;;11.23;8.10;;;;;;;18.60;63.92;101686.81;6253606;23;20031;-85
2022/06/17 04:50:56;;;;;;;10.65;8.07;;;;;;;18.60;63.62;101692.09;6256339;23;20064;-83
2022/06/17 04:53:25;;;;;;;11.00;8.35;;;;;;;18.14;65.49;101680.78;6252135;23;20020;-85
2022/06/17 04:55:52;;;;;;;11.85;8.43;;;;;;;19.03;63.15;101693.06;6252608;23;20024;-84
2022/06/17 04:58:23;;;;;;;11.43;8.18;;;;;;;19.73;61.00;101680.97;6253187;23;20036;-86
2022/06/17 05:00:54;;;;;;;8.55;7.65;;;;;;;20.13;59.56;101682.94;6257395;23;20383;-85
2022/06/17 05:03:22;;;;;;;9.77;7.50;;;;;;;20.28;58.99;101685.50;6256990;23;20099;-82
2022/06/17 05:05:53;;;;;;;9.48;8.32;;;;;;;20.76;57.69;101677.63;6255970;23;20024;-83
2022/06/17 05:08:23;;;;;;;9.73;7.70;;;;;;;20.78;57.80;101688.91;6254247;23;20392;-83
2022/06/17 05:10:55;;;;;;;15.55;8.50;;;;;;;20.18;58.98;101688.50;6255628;23;20027;-83
2022/06/17 05:13:27;;;;;;;11.65;8.13;;;;;;;20.24;59.60;101686.09;6256419;23;20047;-84
2022/06/17 05:15:53;;;;;;;12.38;7.80;;;;;;;20.45;58.99;101684.19;6255952;23;20051;-83
2022/06/17 05:18:21;;;;;;;16.48;8.25;;;;;;;20.88;57.72;101692.00;6256986;23;20024;-82
2022/06/17 05:20:48;;;;;;;9.65;7.85;;;;;;;21.08;56.82;101692.91;6260608;23;20016;-83
2022/06/17 05:23:17;;;;;;;9.88;7.35;;;;;;;20.66;58.34;101678.00;6261720;23;20047;-81
2022/06/17 05:25:47;;;;;;;13.57;7.80;;;;;;;20.75;58.21;101676.81;6262437;23;20028;-84
2022/06/17 05:28:16;;;;;;;7.88;7.07;;;;;;;20.90;57.51;101678.50;6262387;23;20020;-83
2022/06/17 05:30:46;;;;;;;9.07;7.20;;;;;;;22.38;53.87;101680.94;6261618;23;20027;-84
2022/06/17 05:33:15;;;;;;;9.07;7.63;;;;;;;22.80;52.49;101675.09;6262000;23;20051;-82
2022/06/17 05:35:42;;;;;;;10.70;7.30;;;;;;;22.03;53.54;101681.22;6259929;23;20274;-83
2022/06/17 05:38:09;;;;;;;7.60;6.80;;;;;;;22.80;53.11;101679.63;6262642;23;20584;-82
2022/06/17 05:40:39;;;;;;;13.93;7.65;;;;;;;22.45;53.81;101679.09;6263680;23;20020;-80
2022/06/17 05:43:08;;;;;;;9.35;7.63;;;;;;;23.53;51.00;101681.91;6265404;23;20034;-82
2022/06/17 05:48:17;;;;;;;9.82;7.20;;;;;;;22.96;51.68;101670.31;6254753;23;20028;-82
2022/06/17 05:50:44;;;;;;;9.80;6.68;;;;;;;23.56;51.43;101679.66;6256966;23;20016;-80
2022/06/17 05:53:13;;;;;;;10.93;6.68;;;;;;;24.35;49.19;101654.09;6251540;23;20019;-83
2022/06/17 05:55:41;;;;;;;10.20;6.65;;;;;;;24.12;48.82;101663.53;6250509;23;20361;-83
2022/06/17 05:58:08;;;;;;;9.52;6.95;;;;;;;23.97;49.18;101663.09;6250831;23;20086;-82
2022/06/17 06:00:35;;;;;;;9.88;6.80;;;;;;;24.26;48.78;101660.78;6251408;23;20020;-84
2022/06/17 06:03:07;;;;;;;8.63;6.40;;;;;;;23.69;49.63;101658.16;6251433;23;20039;-83
2022/06/17 06:05:35;;;;;;;14.10;7.88;;;;;;;22.88;51.96;101665.22;6251236;23;20024;-84
2022/06/17 06:08:02;;;;;;;9.18;6.55;;;;;;;22.57;53.35;101658.75;6253002;23;20024;-84
2022/06/17 06:10:28;;;;;;;7.28;6.25;;;;;;;22.74;53.07;101657.25;6250529;23;20020;-82
2022/06/17 06:13:02;;;;;;;10.40;6.20;;;;;;;22.02;54.72;101666.25;6247688;23;20074;-82
2022/06/17 06:15:32;;;;;;;8.05;6.35;;;;;;;21.84;55.77;101661.50;6247982;23;20123;-83
2022/06/17 06:17:59;;;;;;;9.77;6.68;;;;;;;20.99;57.85;101656.84;6254579;23;20035;-83
2022/06/17 06:20:26;;;;;;;9.85;6.93;;;;;;;21.19;57.13;101651.59;6252832;23;20400;-83
2022/06/17 06:22:53;;;;;;;9.73;6.68;;;;;;;22.31;54.55;101654.31;6251235;23;20093;-81
2022/06/17 06:25:20;;;;;;;7.95;6.38;;;;;;;24.20;49.96;101654.41;6250219;23;20059;-81
2022/06/17 06:27:47;;;;;;;11.02;6.53;;;;;;;23.03;51.32;101649.75;6251131;23;20032;-81
2022/06/17 06:30:21;;;;;;;8.32;6.50;;;;;;;23.50;50.38;101651.94;6264310;23;20024;-80
2022/06/17 06:32:53;;;;;;;10.88;6.30;;;;;;;23.99;48.94;101628.94;6267240;23;20046;-84
2022/06/17 06:35:24;;;;;;;8.00;5.60;;;;;;;24.18;48.49;101632.44;6263921;23;20025;-83
2022/06/17 06:37:51;;;;;;;13.60;5.90;;;;;;;24.66;46.82;101655.78;6256370;23;20039;-82
2022/06/17 06:40:19;;;;;;;6.60;5.28;;;;;;;24.95;45.40;101652.34;6254066;23;20016;-82
2022/06/17 06:42:49;;;;;;;9.98;5.10;;;;;;;26.06;41.75;101664.25;6260999;23;20082;-81
2022/06/17 06:45:25;;;;;;;8.02;5.43;;;;;;;24.39;45.61;101649.94;6259002;23;20044;-82
2022/06/17 06:47:53;;;;;;;8.98;5.35;;;;;;;25.16;44.38;101651.03;6252557;23;20074;-81
2022/06/17 06:50:23;;;;;;;9.18;5.38;;;;;;;25.24;43.59;101640.00;6253249;23;20484;-81
2022/06/17 06:52:50;;;;;;;9.57;4.93;;;;;;;25.09;43.38;101637.72;6254200;23;20027;-80
2022/06/17 06:55:17;;;;;;;8.25;4.90;;;;;;;26.36;41.07;101632.78;6252872;23;20365;-82
2022/06/17 06:57:49;;;;;;;6.10;4.82;;;;;;;25.31;41.59;101640.72;6254039;23;20052;-81
2022/06/17 07:00:24;;;;;;;6.22;4.72;;;;;;;26.24;40.00;101634.63;6255208;23;20096;-81
2022/06/17 07:02:50;;;;;;;10.63;4.72;;;;;;;25.89;40.14;101636.53;6254865;23;20028;-79
2022/06/17 07:05:21;;;;;;;6.93;5.00;;;;;;;26.98;38.63;101650.91;6252309;23;20024;-81
2022/06/17 07:10:44;;;;;;;7.00;5.03;;;;;;;28.65;35.92;101650.84;6253101;23;20143;-81
2022/06/17 07:13:26;;;;;;;5.70;4.82;;;;;;;28.83;35.23;101638.13;6257405;23;20044;-82
2022/06/17 07:23:21;;;;;;;7.30;4.75;;;;;;;27.81;36.03;101625.19;6159416;23;20020;-80
2022/06/17 07:26:11;;;;;;;6.85;4.38;;;;;;;27.05;36.55;101625.53;6254882;23;20020;-80
2022/06/17 07:28:51;;;;;;;8.10;4.45;;;;;;;25.79;39.83;101645.97;6240111;23;20651;-81
2022/06/17 07:34:31;;;;;;;7.75;4.50;;;;;;;25.27;41.10;101628.84;6229568;23;20059;-81
2022/06/17 07:42:12;;;;;;;7.03;4.90;;;;;;;25.12;40.10;101647.19;6267962;23;20055;-82
2022/06/17 07:44:39;;;;;;;6.93;4.63;;;;;;;25.59;40.36;101641.94;6255246;23;20031;-82
2022/06/17 07:47:07;;;;;;;7.28;4.60;;;;;;;25.09;41.26;101647.63;6253192;23;20031;-84
2022/06/17 07:49:33;;;;;;;7.55;4.78;;;;;;;25.70;41.97;101651.88;6254554;23;20035;-84
2022/06/17 07:52:00;;;;;;;11.10;4.53;;;;;;;27.84;37.06;101660.50;6253223;23;20034;-85
2022/06/17 07:54:27;;;;;;;8.40;4.28;;;;;;;26.66;39.11;101655.91;6253544;23;20020;-85
2022/06/17 07:56:54;;;;;;;8.32;4.53;;;;;;;26.18;38.53;101658.88;6253572;23;20051;-85
2022/06/17 07:59:21;;;;;;;6.32;4.38;;;;;;;26.15;39.48;101662.84;6252645;23;20392;-83
2022/06/17 08:01:48;;;;;;;6.97;4.60;;;;;;;26.52;38.15;101663.41;6255108;23;20020;-84
2022/06/17 08:04:16;;;;;;;9.52;4.95;;;;;;;25.68;39.75;101662.84;6255699;23;20020;-85
2022/06/17 08:06:49;;;;;;;9.63;4.50;;;;;;;27.23;38.95;101659.44;6253496;23;20480;-84
2022/06/17 08:09:15;;;;;;;8.32;4.32;;;;;;;27.99;36.20;101667.94;6253992;23;20024;-87
2022/06/17 08:11:42;;;;;;;10.45;4.50;;;;;;;28.66;36.06;101665.94;6253858;23;20017;-86
2022/06/17 08:14:10;;;;;;;6.00;4.43;;;;;;;27.91;37.06;101661.09;6254581;23;20043;-85
2022/06/17 08:16:36;;;;;;;7.93;4.30;;;;;;;28.32;35.79;101654.47;6253402;23;20051;-85
2022/06/17 08:19:04;;;;;;;10.75;4.43;;;;;;;27.43;36.09;101665.16;6253637;23;20399;-85
2022/06/17 08:21:32;;;;;;;7.22;4.72;;;;;;;26.55;38.55;101656.75;6255565;23;20439;-83
2022/06/17 08:23:59;;;;;;;7.88;4.88;;;;;;;28.06;36.93;101668.59;6255735;23;20028;-84
2022/06/17 08:26:25;;;;;;;9.18;4.65;;;;;;;26.72;37.30;101653.09;6254475;23;20051;-84
2022/06/17 08:28:52;;;;;;;10.18;4.95;;;;;;;27.72;36.79;101652.50;6255234;23;20020;-84
2022/06/17 08:31:19;;;;;;;10.70;4.68;;;;;;;27.58;37.38;101645.78;6256305;23;20051;-84
2022/06/17 08:33:46;;;;;;;6.70;4.40;;;;;;;28.34;35.66;101624.63;6255537;23;20061;-85
2022/06/17 08:36:15;;;;;;;7.43;4.10;;;;;;;27.97;34.48;101632.41;6255997;23;20024;-84
2022/06/17 08:38:49;;;;;;;7.53;4.30;;;;;;;28.68;34.88;101620.72;6254759;23;20031;-84
2022/06/17 08:41:26;;;;;;;9.77;4.60;;;;;;;27.29;36.29;101626.25;6255551;23;20024;-83
2022/06/17 08:44:17;;;;;;;8.93;4.15;;;;;;;27.52;36.01;101621.75;6258438;23;20024;-83
2022/06/17 08:46:58;;;;;;;7.70;4.67;;;;;;;28.93;34.52;101632.84;6269241;23;20031;-83
2022/06/17 08:50:02;;;;;;;7.90;4.75;;;;;;;27.52;34.60;101627.13;6264591;23;20050;-86
2022/06/17 08:52:47;;;;;;;8.15;4.13;;;;;;;28.49;33.21;101619.41;6256877;23;20027;-84
2022/06/17 08:55:26;;;;;;;8.32;4.00;;;;;;;28.78;31.80;101611.13;6256902;23;20077;-84
2022/06/17 08:58:00;;;;;;;7.18;3.97;;;;;;;28.90;32.11;101606.41;6255346;23;20052;-84
2022/06/17 09:00:37;;;;;;;6.93;4.15;;;;;;;28.93;32.68;101604.00;6255453;23;20020;-84
2022/06/17 09:03:37;;;;;;;7.90;3.90;;;;;;;28.48;33.49;101601.63;6256819;23;20031;-82
2022/06/17 09:06:17;;;;;;;5.97;4.25;;;;;;;28.39;33.47;101603.94;6256093;23;20024;-83
2022/06/17 09:09:02;;;;;;;4.97;4.00;;;;;;;28.73;32.80;101604.59;6254716;23;20020;-83
2022/06/17 09:11:38;;;;;;;6.75;3.80;;;;;;;29.55;31.74;101605.38;6253280;23;20043;-81
2022/06/17 09:14:20;;;;;;;6.68;4.05;;;;;;;28.86;32.09;101616.06;6252148;23;20020;-84
2022/06/17 09:16:56;;;;;;;6.97;3.90;;;;;;;28.50;33.12;101614.81;6253275;23;20024;-84
2022/06/17 09:19:29;;;;;;;6.43;3.78;;;;;;;27.33;33.85;101608.56;6253056;23;20027;-83
2022/06/17 09:22:01;;;;;;;7.50;4.28;;;;;;;27.37;34.09;101609.72;6254048;23;20052;-83
2022/06/17 09:24:33;;;;;;;9.90;4.13;;;;;;;26.76;34.80;101600.53;6254677;23;20080;-82
2022/06/17 09:27:04;;;;;;;10.10;4.17;;;;;;;28.14;33.29;101606.28;6254078;23;20020;-81
2022/06/17 09:29:38;;;;;;;7.82;4.30;;;;;;;27.83;33.16;101599.69;6255589;23;20024;-82
2022/06/17 09:32:11;;;;;;;6.20;3.67;;;;;;;26.96;34.18;101600.13;6253149;23;20024;-84
2022/06/17 09:34:45;;;;;;;7.32;3.80;;;;;;;26.57;35.31;101596.41;6252967;23;20024;-83
2022/06/17 09:37:17;;;;;;;8.75;3.63;;;;;;;27.10;34.05;101596.09;6253156;23;20058;-84
2022/06/17 09:39:49;;;;;;;6.80;3.85;;;;;;;28.53;32.00;101580.13;6254701;23;20024;-84
2022/06/17 09:42:24;;;;;;;6.97;3.90;;;;;;;28.63;31.79;101592.91;6253392;23;20087;-83
2022/06/17 09:44:57;;;;;;;10.27;4.10;;;;;;;28.94;31.62;101583.28;6252512;23;20028;-84
2022/06/17 09:47:29;;;;;;;5.32;3.58;;;;;;;29.34;31.03;101580.91;6253008;23;20024;-84
2022/06/17 09:49:58;;;;;;;5.95;3.40;;;;;;;28.65;30.62;101574.63;6252480;23;20024;-82
2022/06/17 09:52:32;;;;;;;8.55;3.88;;;;;;;28.42;31.78;101581.06;6251501;23;20027;-82
2022/06/17 09:55:06;;;;;;;6.15;3.72;;;;;;;28.22;31.91;101567.41;6250878;23;20027;-82
2022/06/17 09:57:40;;;;;;;7.88;3.80;;;;;;;29.40;30.85;101574.50;6251855;23;20020;-83
2022/06/17 10:00:11;;;;;;;7.40;3.80;;;;;;;28.83;31.30;101576.97;6255056;23;20024;-80
2022/06/17 10:02:48;;;;;;;5.20;3.70;;;;;;;28.12;32.39;101569.94;6267970;23;20016;-83
2022/06/17 10:05:23;;;;;;;5.68;4.05;;;;;;;27.49;31.53;101576.53;6264241;23;20344;-85
2022/06/17 10:07:57;;;;;;;9.07;4.00;;;;;;;27.76;31.49;101564.09;6253669;23;20052;-83
2022/06/17 10:10:32;;;;;;;5.88;3.85;;;;;;;27.35;32.95;101559.94;6254209;23;20024;-86
2022/06/17 10:13:13;;;;;;;8.55;3.88;;;;;;;26.82;33.53;101565.75;6255126;23;20047;-85
2022/06/17 10:18:38;;;;;;;5.82;3.85;;;;;;;28.30;31.89;101553.50;6253449;23;20100;-85
2022/06/17 10:21:22;;;;;;;6.88;3.55;;;;;;;28.57;32.61;101553.53;6254536;23;20016;-84
2022/06/17 10:24:04;;;;;;;5.90;3.67;;;;;;;28.04;32.47;101547.78;6252828;23;20341;-83
2022/06/17 10:26:41;;;;;;;;;;;;;;;28.19;31.06;101549.03;6254182;23;20079;-85
2022/06/17 10:29:37;;;;;;;7.32;3.40;;;;;;;27.69;32.29;101544.63;6252797;23;19915;-85
2022/06/17 10:32:05;;;;;;;6.38;3.78;;;;;;;28.59;31.35;101546.81;6253639;23;20344;-80
2022/06/17 10:34:43;;;;;;;6.03;3.80;;;;;;;28.27;30.95;101545.94;6253448;23;20024;-84
2022/06/17 10:37:11;;;;;;;4.47;3.38;;;;;;;28.68;30.84;101549.88;6253711;23;20043;-85
2022/06/17 10:39:39;;;;;;;4.20;3.35;;;;;;;29.29;30.26;101548.56;6253550;23;20108;-85
2022/06/17 10:42:08;;;;;;;7.30;3.70;;;;;;;27.81;31.07;101564.16;6252797;23;20024;-85
2022/06/17 10:44:37;;;;;;;6.28;3.50;;;;;;;27.47;30.86;101565.22;6253796;23;20039;-84
2022/06/17 10:47:15;;;;;;;5.38;3.63;;;;;;;27.71;30.91;101564.81;6252651;23;20047;-83
2022/06/17 10:49:49;;;;;;;6.88;3.42;;;;;;;27.68;31.24;101569.88;6251175;23;20047;-84
2022/06/17 10:52:21;;;;;;;6.82;3.50;;;;;;;28.58;30.38;101566.72;6251297;23;20020;-82
2022/06/17 10:54:50;;;;;;;6.90;3.63;;;;;;;28.16;30.51;101561.09;6251620;23;20051;-83
2022/06/17 10:57:24;;;;;;;7.65;3.40;;;;;;;27.89;30.34;101558.31;6252064;23;20031;-83
2022/06/17 10:59:52;;;;;;;10.63;3.75;;;;;;;27.63;31.18;101559.03;6251130;23;20108;-84
2022/06/17 11:02:30;;;;;;;5.95;3.50;;;;;;;28.17;30.61;101557.34;6250898;23;20027;-82
2022/06/17 11:04:59;;;;;;;13.55;3.80;;;;;;;27.44;30.90;101559.28;6251049;23;20124;-83
2022/06/17 11:07:30;;;;;;;5.05;3.42;;;;;;;28.37;30.67;101556.78;6251706;23;20115;-82
2022/06/17 11:10:00;;;;;;;8.05;3.22;;;;;;;28.42;30.28;101551.47;6253347;23;20024;-80
2022/06/17 11:12:38;;;;;;;11.32;3.70;;;;;;;28.81;28.68;101545.97;6252540;23;20051;-84
2022/06/17 11:15:21;;;;;;;11.93;3.55;;;;;;;29.37;29.46;101529.19;6251302;23;20031;-82
2022/06/17 11:17:50;;;;;;;6.80;3.63;;;;;;;28.93;29.68;101541.22;6251387;23;20047;-81
2022/06/17 11:20:24;;;;;;;3.85;3.45;;;;;;;29.03;30.54;101538.63;6250361;23;20047;-83
2022/06/17 11:22:53;;;;;;;4.95;3.50;;;;;;;28.99;30.79;101542.91;6249280;23;20496;-82
2022/06/17 11:25:25;;;;;;;4.68;3.50;;;;;;;30.07;28.89;101537.16;6249732;23;20484;-83
2022/06/17 11:27:55;;;;;;;6.35;4.00;;;;;;;29.63;29.43;101530.19;6249777;23;20053;-82
2022/06/17 11:30:27;;;;;;;7.07;3.50;;;;;;;30.16;28.90;101541.78;6248102;23;20170;-82
2022/06/17 11:32:54;;;;;;;;;;;;;;;30.14;29.80;101535.03;6251472;23;20020;-80
2022/06/17 11:35:26;;;;;;;10.07;4.05;;;;;;;29.69;29.66;101531.84;6246382;23;19915;-83
2022/06/17 11:37:54;;;;;;;5.72;3.78;;;;;;;29.15;29.77;101517.72;6249755;23;20388;-82
2022/06/17 11:40:23;;;;;;;4.88;3.30;;;;;;;28.92;29.52;101515.34;6249335;23;20024;-80
2022/06/17 11:42:53;;;;;;;6.18;3.65;;;;;;;29.49;30.01;101510.13;6248519;23;20016;-81
2022/06/17 11:45:25;;;;;;;5.85;3.45;;;;;;;30.02;29.06;101503.69;6249168;23;20024;-80
2022/06/17 11:47:59;;;;;;;5.68;3.40;;;;;;;29.10;29.91;101500.69;6250607;23;20461;-82
2022/06/17 11:50:30;;;;;;;7.00;3.50;;;;;;;29.58;30.02;101495.09;6251007;23;20047;-79
2022/06/17 11:53:06;;;;;;;4.83;3.50;;;;;;;29.34;29.96;101491.94;6249467;23;20024;-84
2022/06/17 11:55:41;;;;;;;6.40;3.55;;;;;;;30.13;30.01;101482.13;6253530;23;20243;-82
2022/06/17 11:58:08;;;;;;;7.90;3.67;;;;;;;30.41;28.49;101486.22;6253403;23;20024;-84
2022/06/17 12:00:48;;;;;;;4.22;3.20;;;;;;;30.29;27.88;101486.47;6254091;23;20024;-84
2022/06/17 12:03:18;;;;;;;6.50;3.08;;;;;;;29.30;27.65;101485.44;6252819;23;20071;-83
2022/06/17 12:05:56;;;;;;;8.18;3.35;;;;;;;29.42;27.50;101476.38;6253388;23;20031;-83
2022/06/17 12:08:26;;;;;;;5.82;3.33;;;;;;;29.82;27.99;101479.28;6255810;23;20046;-83
2022/06/17 12:10:56;;;;;;;4.10;3.03;;;;;;;30.25;27.70;101470.00;6257916;23;20035;-82
2022/06/17 12:13:27;;;;;;;11.68;4.13;;;;;;;30.53;27.95;101463.28;6256171;23;20024;-83
2022/06/17 12:15:59;;;;;;;7.70;3.40;;;;;;;30.53;27.45;101466.00;6255397;23;20028;-84
2022/06/17 12:18:30;;;;;;;5.97;3.60;;;;;;;30.53;27.02;101460.59;6261847;22;20012;-84
2022/06/17 12:21:08;;;;;;;5.65;3.63;;;;;;;29.03;28.07;101457.78;6272247;22;20019;-84
2022/06/17 12:23:41;;;;;;;4.03;3.10;;;;;;;29.22;28.50;101453.63;6259040;23;20039;-84
2022/06/17 12:26:16;;;;;;;8.35;3.17;;;;;;;29.73;28.40;101445.00;6253689;23;20024;-83
2022/06/17 12:28:52;;;;;;;6.20;3.63;;;;;;;30.39;28.34;101459.50;6254862;23;20028;-83
2022/06/17 12:31:28;;;;;;;5.18;3.60;;;;;;;30.00;27.96;101441.06;6256060;23;20078;-83
2022/06/17 12:34:05;;;;;;;5.57;3.40;;;;;;;30.08;27.86;101455.13;6249184;23;20020;-81
2022/06/17 12:36:38;;;;;;;8.32;3.40;;;;;;;30.25;27.45;101456.50;6249851;23;20039;-80
2022/06/17 12:39:13;;;;;;;3.50;3.20;;;;;;;29.91;28.38;101453.41;6249710;23;20020;-82
2022/06/17 12:41:48;;;;;;;5.95;3.40;;;;;;;30.49;28.76;101451.41;6251351;23;20023;-81
2022/06/17 12:44:32;;;;;;;3.72;3.10;;;;;;;30.98;27.14;101440.06;6250614;23;20397;-80
2022/06/17 12:47:07;;;;;;;5.60;3.03;;;;;;;30.81;27.89;101447.63;6249988;23;20035;-81
2022/06/17 12:55:35;;;;;;;3.92;3.40;;;;;;;30.79;27.97;101420.88;6249418;23;20096;-80
2022/06/17 12:58:13;;;;;;;7.35;3.70;;;;;;;30.97;27.37;101427.63;6249176;23;20028;-82
2022/06/17 13:00:43;;;;;;;4.20;3.40;;;;;;;30.55;27.58;101422.50;6250068;23;20481;-80
2022/06/17 13:03:42;;;;;;;4.88;3.45;;;;;;;31.00;28.42;101413.56;6250109;23;20142;-79
2022/06/17 13:06:18;;;;;;;6.30;3.58;;;;;;;31.22;28.70;101405.97;6250601;23;20024;-78